Time;durP1;ratioP1;P1;durP2;ratioP2;P2;SDS_P1;SDS_P2;PMS_P1;PMS_P2;Temp;Humidity;BMP_temperature;BMP_pressure;BME280_temperature;BME280_humidity;BME280_pressure;Samples;Min_cycle;Max_cycle;Signal;HPM_P1;HPM_P2
2023/10/17 00:02:10;;;;;;;4.97;3.63;;;9.90;99.90;;;;;;5028840;28;20236;-74
2023/10/17 00:04:40;;;;;;;5.07;2.90;;;9.90;99.90;;;;;;5031556;28;20655;-74
2023/10/17 00:07:08;;;;;;;5.85;3.00;;;9.80;99.90;;;;;;5029399;28;20202;-74
2023/10/17 00:09:39;;;;;;;6.32;3.13;;;9.80;99.90;;;;;;5028969;28;20659;-74
2023/10/17 00:14:45;;;;;;;4.35;2.88;;;9.70;99.90;;;;;;5032319;28;20169;-75
2023/10/17 00:17:13;;;;;;;5.68;2.95;;;9.70;99.90;;;;;;5033657;28;20265;-73
2023/10/17 00:19:41;;;;;;;4.35;3.10;;;9.60;99.90;;;;;;5032195;28;20668;-74
2023/10/17 00:22:09;;;;;;;4.13;2.70;;;9.60;99.90;;;;;;5031763;28;20243;-74
2023/10/17 00:24:35;;;;;;;4.70;3.10;;;9.60;99.90;;;;;;5032007;28;20917;-73
2023/10/17 00:27:02;;;;;;;5.93;2.90;;;9.50;99.90;;;;;;5014968;28;20197;-74
2023/10/17 00:29:29;;;;;;;3.58;2.10;;;9.50;99.90;;;;;;5033627;28;20273;-73
2023/10/17 00:31:56;;;;;;;3.53;3.00;;;9.50;99.90;;;;;;5031577;28;20661;-74
2023/10/17 00:34:25;;;;;;;3.70;2.38;;;9.40;99.90;;;;;;5033221;28;20667;-74
2023/10/17 00:36:52;;;;;;;4.70;2.97;;;9.40;99.90;;;;;;5032943;28;20182;-74
2023/10/17 00:39:51;;;;;;;3.00;2.08;;;9.40;99.90;;;;;;5031580;28;20267;-74
2023/10/17 00:42:27;;;;;;;4.13;2.83;;;9.40;99.90;;;;;;5014786;28;20647;-74
2023/10/17 00:44:53;;;;;;;4.38;2.45;;;9.40;99.90;;;;;;5033288;28;20205;-73
2023/10/17 00:47:19;;;;;;;3.83;2.35;;;9.30;99.90;;;;;;5014718;28;20236;-74
2023/10/17 00:49:47;;;;;;;6.00;3.00;;;9.30;99.90;;;;;;5015049;28;20253;-73
2023/10/17 00:52:34;;;;;;;4.10;2.95;;;9.30;99.90;;;;;;4998261;28;20738;-73
2023/10/17 00:55:02;;;;;;;4.28;2.20;;;9.30;99.90;;;;;;5014665;28;20166;-73
2023/10/17 00:57:28;;;;;;;5.20;2.75;;;9.20;99.90;;;;;;5014851;28;20182;-73
2023/10/17 01:00:09;;;;;;;2.90;2.10;;;9.20;99.90;;;;;;5031715;28;20185;-73
2023/10/17 01:02:44;;;;;;;3.72;2.40;;;9.10;99.90;;;;;;5014449;28;20262;-73
2023/10/17 01:05:12;;;;;;;4.38;2.15;;;9.10;99.90;;;;;;5031470;28;20702;-73
2023/10/17 01:07:40;;;;;;;7.57;2.90;;;9.10;99.90;;;;;;5014347;28;20193;-73
2023/10/17 01:10:10;;;;;;;4.20;2.50;;;9.10;99.90;;;;;;5032663;28;20182;-74
2023/10/17 01:12:46;;;;;;;3.58;2.42;;;9.10;99.90;;;;;;5014777;28;20574;-73
2023/10/17 01:15:28;;;;;;;7.95;2.53;;;9.10;99.90;;;;;;5031005;28;20169;-74
2023/10/17 01:18:03;;;;;;;6.05;3.00;;;9.00;99.90;;;;;;5031095;28;20564;-73
2023/10/17 01:20:30;;;;;;;2.95;2.25;;;9.00;99.90;;;;;;5014274;28;20177;-73
2023/10/17 01:22:56;;;;;;;3.90;2.60;;;9.10;99.90;;;;;;5029900;28;20324;-74
2023/10/17 01:25:26;;;;;;;4.40;2.37;;;9.10;99.90;;;;;;5011348;28;20261;-74
2023/10/17 01:27:52;;;;;;;4.90;2.40;;;9.10;99.90;;;;;;5012812;28;20687;-74
2023/10/17 01:30:19;;;;;;;4.03;2.30;;;9.10;99.90;;;;;;5032199;28;20177;-74
2023/10/17 01:32:47;;;;;;;6.15;2.65;;;9.20;99.90;;;;;;5013603;28;20209;-74
2023/10/17 01:35:13;;;;;;;2.50;1.90;;;9.20;99.90;;;;;;5014541;28;20192;-74
2023/10/17 01:37:40;;;;;;;4.43;1.95;;;9.30;99.90;;;;;;5030277;28;20279;-74
2023/10/17 01:40:18;;;;;;;4.15;2.92;;;9.30;99.90;;;;;;5014349;28;20174;-74
2023/10/17 01:42:43;;;;;;;5.88;2.80;;;9.30;99.90;;;;;;5013877;28;20256;-74
2023/10/17 01:45:13;;;;;;;4.17;2.47;;;9.40;99.90;;;;;;5030736;28;20213;-75
2023/10/17 01:47:39;;;;;;;3.70;2.15;;;9.40;99.90;;;;;;5013880;28;20295;-75
2023/10/17 01:50:10;;;;;;;3.70;2.70;;;9.50;99.90;;;;;;5014105;28;20265;-75
2023/10/17 01:52:37;;;;;;;4.82;3.42;;;9.50;99.90;;;;;;5013444;28;20198;-73
2023/10/17 01:55:10;;;;;;;3.55;2.08;;;9.50;99.90;;;;;;5013893;28;20177;-73
2023/10/17 01:57:47;;;;;;;4.20;2.30;;;9.50;99.90;;;;;;5013953;28;20213;-75
2023/10/17 02:00:27;;;;;;;6.25;3.00;;;9.50;99.90;;;;;;5031161;28;20174;-73
2023/10/17 02:02:54;;;;;;;4.30;2.60;;;9.50;99.90;;;;;;5029657;28;20173;-74
2023/10/17 02:05:21;;;;;;;3.97;2.05;;;9.50;99.90;;;;;;5031583;28;20170;-73
2023/10/17 02:07:47;;;;;;;3.42;2.30;;;9.50;99.90;;;;;;5029184;28;20871;-74
2023/10/17 02:10:17;;;;;;;5.43;2.55;;;9.60;99.90;;;;;;5013626;28;20260;-74
2023/10/17 02:12:44;;;;;;;3.45;2.45;;;9.60;99.90;;;;;;5029583;28;20292;-74
2023/10/17 02:15:12;;;;;;;2.70;1.98;;;9.60;99.90;;;;;;5013663;28;20170;-74
2023/10/17 02:17:38;;;;;;;2.20;1.60;;;9.60;99.90;;;;;;5031176;28;20213;-74
2023/10/17 02:20:18;;;;;;;3.10;2.80;;;9.60;99.90;;;;;;5030122;28;20590;-74
2023/10/17 02:22:46;;;;;;;2.95;2.20;;;9.60;99.90;;;;;;5029242;28;20178;-74
2023/10/17 02:25:15;;;;;;;2.95;1.95;;;9.60;99.90;;;;;;5013043;28;20177;-74
2023/10/17 02:27:43;;;;;;;3.92;2.58;;;9.60;99.90;;;;;;5030982;28;20220;-74
2023/10/17 02:30:13;;;;;;;4.15;2.05;;;9.60;99.90;;;;;;5021841;28;20170;-73
2023/10/17 02:33:01;;;;;;;3.42;2.88;;;9.60;99.90;;;;;;5030538;28;20858;-74
2023/10/17 02:35:39;;;;;;;2.90;2.00;;;9.60;99.90;;;;;;5013077;28;20193;-74
2023/10/17 02:38:05;;;;;;;6.35;2.42;;;9.60;99.90;;;;;;5013023;28;20272;-74
2023/10/17 02:40:34;;;;;;;4.00;2.00;;;9.60;99.90;;;;;;5029910;28;20178;-73
2023/10/17 02:43:03;;;;;;;3.22;2.08;;;9.60;99.90;;;;;;5029298;28;20170;-74
2023/10/17 02:45:29;;;;;;;3.45;2.08;;;9.60;99.90;;;;;;5029667;28;20539;-74
2023/10/17 02:47:57;;;;;;;3.00;1.80;;;9.60;99.90;;;;;;5030375;28;20292;-74
2023/10/17 02:52:52;;;;;;;4.68;2.10;;;9.60;99.90;;;;;;5012597;28;20201;-74
2023/10/17 02:55:39;;;;;;;5.70;2.70;;;9.60;99.90;;;;;;5012681;28;20172;-74
2023/10/17 02:58:04;;;;;;;5.03;2.42;;;9.60;99.90;;;;;;5012701;28;20201;-74
2023/10/17 03:00:34;;;;;;;3.97;2.03;;;9.60;99.90;;;;;;5029416;28;20181;-74
2023/10/17 03:03:00;;;;;;;3.40;2.08;;;9.60;99.90;;;;;;5012490;28;20189;-74
2023/10/17 03:05:27;;;;;;;2.70;1.57;;;9.70;99.90;;;;;;5012772;28;20282;-74
2023/10/17 03:07:53;;;;;;;2.78;1.85;;;9.70;99.90;;;;;;5028983;28;20631;-74
2023/10/17 03:10:39;;;;;;;3.42;1.80;;;9.70;99.90;;;;;;5029347;28;20636;-74
2023/10/17 03:15:48;;;;;;;3.22;1.75;;;9.70;99.90;;;;;;5029301;28;20323;-74
2023/10/17 03:18:17;;;;;;;3.42;2.25;;;9.70;99.90;;;;;;5012731;28;20209;-74
2023/10/17 03:20:52;;;;;;;2.60;2.20;;;9.70;99.90;;;;;;5012639;28;20178;-75
2023/10/17 03:23:19;;;;;;;2.55;1.83;;;9.70;99.90;;;;;;4996410;28;20173;-74
2023/10/17 03:25:46;;;;;;;4.47;1.73;;;9.70;99.90;;;;;;5045518;28;20273;-74
2023/10/17 03:28:16;;;;;;;2.80;1.85;;;9.70;99.90;;;;;;5029177;28;20199;-74
2023/10/17 03:30:43;;;;;;;2.70;2.20;;;9.70;99.90;;;;;;5028482;28;20216;-74
2023/10/17 03:33:25;;;;;;;2.28;1.55;;;9.80;99.90;;;;;;5013470;28;20193;-74
2023/10/17 03:38:31;;;;;;;5.63;2.40;;;9.80;99.90;;;;;;5030157;28;20192;-74
2023/10/17 03:41:07;;;;;;;3.45;1.92;;;9.80;99.90;;;;;;5012127;28;20181;-74
2023/10/17 03:43:38;;;;;;;3.50;1.90;;;9.80;99.90;;;;;;5030233;28;20532;-74
2023/10/17 03:46:07;;;;;;;2.30;1.67;;;9.90;99.90;;;;;;5032993;28;20260;-75
2023/10/17 03:48:49;;;;;;;4.30;2.28;;;9.90;99.90;;;;;;5033744;28;20562;-74
2023/10/17 03:51:24;;;;;;;5.53;2.42;;;9.90;99.90;;;;;;5033350;28;20177;-75
2023/10/17 03:53:53;;;;;;;2.42;1.80;;;9.90;99.90;;;;;;5032482;28;20196;-74
2023/10/17 03:56:25;;;;;;;2.75;1.70;;;9.90;99.90;;;;;;5032596;28;20174;-74
2023/10/17 03:59:18;;;;;;;4.40;2.42;;;9.90;99.90;;;;;;5032429;28;20280;-74
2023/10/17 04:01:47;;;;;;;2.90;2.05;;;9.90;99.90;;;;;;5034088;28;20273;-75
2023/10/17 04:04:18;;;;;;;2.50;1.30;;;9.90;99.90;;;;;;5032515;28;20188;-74
2023/10/17 04:06:48;;;;;;;4.43;2.35;;;9.90;99.90;;;;;;5032558;28;20654;-74
2023/10/17 04:09:20;;;;;;;4.93;2.83;;;9.90;99.90;;;;;;5033807;28;20643;-74
2023/10/17 04:11:48;;;;;;;3.20;1.80;;;9.90;99.90;;;;;;5033339;28;20202;-74
2023/10/17 04:14:17;;;;;;;4.63;2.10;;;9.80;99.90;;;;;;5033740;28;20646;-74
2023/10/17 04:16:44;;;;;;;4.57;2.05;;;9.80;99.90;;;;;;5033906;28;20192;-74
2023/10/17 04:19:20;;;;;;;3.17;1.85;;;9.80;99.90;;;;;;5032507;28;20177;-75
2023/10/17 04:24:34;;;;;;;3.78;1.90;;;9.90;99.90;;;;;;5032924;28;20188;-76
2023/10/17 04:27:18;;;;;;;2.65;1.63;;;9.80;99.90;;;;;;5036244;28;20237;-76
2023/10/17 04:29:50;;;;;;;3.85;1.67;;;9.90;99.90;;;;;;5032568;28;20193;-76
2023/10/17 04:32:21;;;;;;;2.45;1.50;;;9.90;99.90;;;;;;5033261;28;20201;-76
2023/10/17 04:34:48;;;;;;;2.40;1.65;;;9.90;99.90;;;;;;5033479;28;20228;-76
2023/10/17 04:37:17;;;;;;;3.88;2.33;;;9.90;99.90;;;;;;5032027;28;20224;-76
2023/10/17 04:39:50;;;;;;;2.75;2.08;;;9.90;99.90;;;;;;5015845;28;20181;-76
2023/10/17 04:42:47;;;;;;;5.60;2.88;;;9.90;99.90;;;;;;5034140;28;20174;-76
2023/10/17 04:45:14;;;;;;;2.60;1.70;;;9.80;99.90;;;;;;5033668;28;20188;-76
2023/10/17 04:47:43;;;;;;;7.35;2.38;;;9.90;99.90;;;;;;5028464;28;20247;-77
2023/10/17 04:50:11;;;;;;;4.25;1.80;;;9.90;99.90;;;;;;5025633;28;20188;-76
2023/10/17 04:52:40;;;;;;;7.03;3.45;;;9.90;99.90;;;;;;5034593;28;20699;-76
2023/10/17 04:55:22;;;;;;;3.65;1.90;;;9.90;99.90;;;;;;5033154;28;20178;-76
2023/10/17 04:57:57;;;;;;;3.38;1.70;;;9.90;99.90;;;;;;5030090;28;20204;-75
2023/10/17 05:06:18;;;;;;;2.90;1.90;;;9.80;99.90;;;;;;5015359;28;20200;-75
2023/10/17 06:17:29;;;;;;;2.80;1.95;;;9.90;99.90;;;;;;5034798;28;20283;-74
2023/10/17 06:19:58;;;;;;;3.13;1.73;;;9.90;99.90;;;;;;5031740;28;20212;-74
2023/10/17 06:23:23;;;;;;;1.80;1.50;;;10.00;99.90;;;;;;5029796;28;20170;-75
2023/10/17 06:31:34;;;;;;;3.67;2.60;;;10.00;99.90;;;;;;5013666;28;20215;-74
2023/10/17 06:33:36;;;;;;;3.47;1.95;;;10.00;99.90;;;;;;5029840;28;20208;-75
2023/10/17 06:36:24;;;;;;;3.95;2.13;;;10.00;99.90;;;;;;5046553;28;20208;-75
2023/10/17 06:38:50;;;;;;;2.72;1.50;;;10.10;99.90;;;;;;5029899;28;20217;-75
2023/10/17 06:41:27;;;;;;;6.03;2.30;;;10.10;99.90;;;;;;5030317;28;20189;-75
2023/10/17 06:43:56;;;;;;;3.40;2.08;;;10.10;99.90;;;;;;5013423;28;20184;-75
2023/10/17 06:47:29;;;;;;;3.22;2.50;;;10.20;99.90;;;;;;5029744;28;20230;-75
2023/10/17 06:54:45;;;;;;;2.47;1.88;;;10.30;99.90;;;;;;5022865;28;20204;-75
2023/10/17 06:57:23;;;;;;;5.45;2.78;;;10.30;99.90;;;;;;5012877;28;20200;-75
2023/10/17 06:59:54;;;;;;;4.30;1.95;;;10.30;99.90;;;;;;5029528;28;20227;-75
2023/10/17 07:02:41;;;;;;;3.17;1.65;;;10.30;99.90;;;;;;5029069;28;20216;-75
2023/10/17 07:05:08;;;;;;;4.50;1.90;;;10.40;99.90;;;;;;5012809;28;20543;-74
2023/10/17 07:07:41;;;;;;;5.30;1.75;;;10.40;99.90;;;;;;5029341;28;20196;-74
2023/10/17 07:13:41;;;;;;;3.22;1.88;;;10.50;99.90;;;;;;5020551;28;20209;-74
2023/10/17 07:16:16;;;;;;;3.20;1.63;;;10.60;99.90;;;;;;5029499;28;20177;-73
2023/10/17 07:18:47;;;;;;;2.63;1.73;;;10.60;99.90;;;;;;5029165;28;20235;-74
2023/10/17 07:21:17;;;;;;;2.35;1.40;;;10.70;99.90;;;;;;5028682;28;20185;-74
2023/10/17 07:23:48;;;;;;;4.72;2.25;;;10.80;99.90;;;;;;5030765;28;20527;-74
2023/10/17 07:26:17;;;;;;;3.97;1.80;;;10.70;99.90;;;;;;5030772;28;20656;-74
2023/10/17 07:28:44;;;;;;;3.42;1.60;;;10.70;99.90;;;;;;5012918;28;20201;-74
2023/10/17 07:31:13;;;;;;;2.28;1.98;;;10.80;99.90;;;;;;5030691;28;20208;-75
2023/10/17 07:33:43;;;;;;;5.28;1.50;;;10.80;99.90;;;;;;5013194;28;20208;-74
2023/10/17 07:36:27;;;;;;;2.53;1.40;;;10.90;99.90;;;;;;5029138;28;20177;-74
2023/10/17 07:38:53;;;;;;;2.85;1.45;;;10.90;99.90;;;;;;5031647;28;20559;-74
2023/10/17 07:41:36;;;;;;;6.03;1.20;;;10.90;99.90;;;;;;5031558;28;20166;-74
2023/10/17 07:44:09;;;;;;;4.88;1.88;;;11.00;99.90;;;;;;5028950;28;20186;-74
2023/10/17 07:46:38;;;;;;;2.65;1.60;;;11.00;99.90;;;;;;5029468;28;20174;-74
2023/10/17 07:49:04;;;;;;;5.40;1.70;;;11.00;99.90;;;;;;5026032;28;20182;-75
2023/10/17 07:51:31;;;;;;;5.22;1.65;;;11.10;99.90;;;;;;5030351;28;20177;-74
2023/10/17 07:54:06;;;;;;;2.97;1.50;;;11.10;99.90;;;;;;5004745;28;20547;-74
2023/10/17 07:56:33;;;;;;;4.25;1.40;;;11.20;99.90;;;;;;5029282;28;20272;-75
2023/10/17 07:59:04;;;;;;;2.83;1.10;;;11.20;99.90;;;;;;5028898;28;20279;-74
2023/10/17 08:01:43;;;;;;;3.15;1.30;;;11.30;99.90;;;;;;5028943;28;20178;-74
2023/10/17 08:04:18;;;;;;;4.72;1.20;;;11.40;99.90;;;;;;5012602;28;20235;-74
2023/10/17 08:06:50;;;;;;;3.95;1.27;;;11.50;99.90;;;;;;5030332;28;20177;-74
2023/10/17 08:11:54;;;;;;;2.45;1.58;;;11.70;99.90;;;;;;5028629;28;20284;-74
2023/10/17 08:14:34;;;;;;;4.40;1.65;;;11.80;99.90;;;;;;5030035;28;20182;-75
2023/10/17 08:17:00;;;;;;;4.13;1.27;;;11.80;99.90;;;;;;5028966;28;20262;-73
2023/10/17 08:19:29;;;;;;;3.20;1.40;;;11.90;99.90;;;;;;5027272;28;20161;-74
2023/10/17 08:24:34;;;;;;;2.75;1.48;;;12.10;99.90;;;;;;5029676;28;20185;-74
2023/10/17 08:27:13;;;;;;;3.95;1.40;;;12.10;99.90;;;;;;5012741;28;20198;-74
2023/10/17 08:29:42;;;;;;;4.17;1.17;;;12.20;99.90;;;;;;5044869;28;20192;-76
2023/10/17 08:35:00;;;;;;;2.42;1.35;;;12.40;99.90;;;;;;5032338;28;20641;-75
2023/10/17 08:37:30;;;;;;;1.90;1.15;;;12.50;99.90;;;;;;5025947;28;20205;-75
2023/10/17 08:39:57;;;;;;;3.60;1.20;;;12.60;99.90;;;;;;5030280;28;20229;-75
2023/10/17 08:44:55;;;;;;;5.17;1.50;;;12.80;99.90;;;;;;5032035;28;20588;-74
2023/10/17 08:47:25;;;;;;;3.20;1.03;;;12.80;99.90;;;;;;5047705;28;20639;-74
2023/10/17 08:49:54;;;;;;;11.10;2.27;;;12.90;99.90;;;;;;5030604;28;20596;-74
2023/10/17 08:52:24;;;;;;;2.63;1.10;;;12.90;99.90;;;;;;5014546;28;20743;-74
2023/10/17 08:54:51;;;;;;;4.20;1.20;;;13.00;99.90;;;;;;5031420;28;20181;-74
2023/10/17 08:57:17;;;;;;;5.97;1.30;;;13.00;99.90;;;;;;5031558;28;20600;-74
2023/10/17 09:02:29;;;;;;;3.20;1.00;;;13.20;99.90;;;;;;5031850;28;20592;-78
2023/10/17 09:05:18;;;;;;;2.90;0.90;;;13.30;99.90;;;;;;5032101;28;20193;-78
2023/10/17 09:07:48;;;;;;;3.30;1.47;;;13.40;99.90;;;;;;5048552;28;20612;-78
2023/10/17 09:10:20;;;;;;;3.53;1.43;;;13.50;99.90;;;;;;5048350;28;20577;-78
2023/10/17 09:15:56;;;;;;;2.30;1.10;;;13.70;99.90;;;;;;5031784;28;20592;-76
2023/10/17 09:18:29;;;;;;;7.13;1.40;;;13.80;99.90;;;;;;5032444;28;20646;-77
2023/10/17 09:20:55;;;;;;;2.73;1.00;;;13.90;99.90;;;;;;5039454;28;20588;-76
2023/10/17 09:23:27;;;;;;;4.70;0.90;;;14.10;99.90;;;;;;5032512;28;20588;-76
2023/10/17 09:25:58;;;;;;;1.97;0.80;;;14.30;99.90;;;;;;5047751;28;20592;-76
2023/10/17 09:28:28;;;;;;;3.13;0.90;;;14.50;99.90;;;;;;5047389;28;20616;-77
2023/10/17 09:31:08;;;;;;;4.47;1.50;;;14.60;99.90;;;;;;5030357;28;20601;-76
2023/10/17 09:33:44;;;;;;;2.80;1.10;;;14.60;99.90;;;;;;5029464;28;20679;-76
2023/10/17 09:36:11;;;;;;;5.27;1.20;;;14.70;99.90;;;;;;5032127;28;20580;-76
2023/10/17 09:38:43;;;;;;;5.73;1.20;;;14.90;99.90;;;;;;5030484;28;21193;-76
2023/10/17 09:41:17;;;;;;;2.63;1.30;;;15.00;99.90;;;;;;5030190;28;20646;-76
2023/10/17 09:43:47;;;;;;;2.20;1.00;;;15.00;99.90;;;;;;5031564;28;20696;-74
2023/10/17 09:46:14;;;;;;;3.77;1.10;;;15.10;99.90;;;;;;5032217;28;20584;-74
2023/10/17 09:48:42;;;;;;;4.20;1.00;;;15.30;99.90;;;;;;5032068;28;20648;-75
2023/10/17 09:51:12;;;;;;;4.30;1.30;;;15.80;99.90;;;;;;5031774;28;20615;-73
2023/10/17 09:53:39;;;;;;;2.80;0.97;;;16.40;99.90;;;;;;5023438;28;21150;-74
2023/10/17 09:56:09;;;;;;;2.30;1.00;;;16.70;99.90;;;;;;5032111;28;20569;-75
2023/10/17 09:58:47;;;;;;;3.70;0.93;;;16.90;99.90;;;;;;5030561;28;20616;-75
2023/10/17 10:01:17;;;;;;;7.30;0.97;;;16.80;99.90;;;;;;5030189;28;20642;-75
2023/10/17 10:03:47;;;;;;;2.40;0.90;;;16.60;99.90;;;;;;5029292;28;20675;-75
2023/10/17 10:06:30;;;;;;;4.27;1.13;;;16.30;99.90;;;;;;5030931;28;20723;-74
2023/10/17 10:09:23;;;;;;;4.00;1.10;;;16.20;99.90;;;;;;5027555;28;20687;-75
2023/10/17 10:11:50;;;;;;;2.60;0.90;;;16.20;99.90;;;;;;5021658;28;21089;-75
2023/10/17 10:14:33;;;;;;;2.90;1.07;;;16.30;99.90;;;;;;5013335;28;20739;-75
2023/10/17 10:17:03;;;;;;;3.53;1.00;;;16.30;99.90;;;;;;5031181;28;20644;-75
2023/10/17 10:19:41;;;;;;;3.40;1.00;;;16.50;99.90;;;;;;5031359;28;20699;-75
2023/10/17 10:22:08;;;;;;;2.60;1.23;;;16.70;99.90;;;;;;5031065;28;20650;-75
2023/10/17 10:24:36;;;;;;;3.50;1.00;;;17.10;99.90;;;;;;5032086;28;20603;-75
2023/10/17 10:27:24;;;;;;;2.30;0.80;;;17.40;99.90;;;;;;5014132;28;20658;-75
2023/10/17 10:30:29;;;;;;;2.70;0.90;;;17.70;99.90;;;;;;5031401;28;20593;-75
2023/10/17 10:32:57;;;;;;;4.63;0.80;;;18.20;99.90;;;;;;5027358;28;20683;-75
2023/10/17 10:35:22;;;;;;;2.10;0.90;;;18.80;99.90;;;;;;5028885;28;20611;-75
2023/10/17 10:37:53;;;;;;;2.10;0.77;;;19.20;99.90;;;;;;5027473;28;20624;-75
2023/10/17 10:40:24;;;;;;;3.17;0.80;;;19.60;99.90;;;;;;5029690;28;20178;-75
2023/10/17 10:42:57;;;;;;;3.87;0.80;;;20.00;99.90;;;;;;5030534;28;20950;-74
2023/10/17 10:45:31;;;;;;;2.20;0.90;;;20.40;99.90;;;;;;5029641;28;20943;-74
2023/10/17 10:48:01;;;;;;;2.77;0.80;;;20.70;99.90;;;;;;5024655;28;20637;-75
2023/10/17 10:50:41;;;;;;;2.63;0.83;;;21.00;99.90;;;;;;5028010;28;20667;-75
2023/10/17 10:53:24;;;;;;;1.90;0.80;;;21.30;99.90;;;;;;5028849;28;20658;-75
2023/10/17 10:56:00;;;;;;;2.13;0.87;;;21.60;99.90;;;;;;5022991;28;20580;-75
2023/10/17 10:58:28;;;;;;;2.13;0.80;;;21.90;99.30;;;;;;5030237;28;20616;-75
2023/10/17 11:00:59;;;;;;;2.27;0.80;;;22.10;96.50;;;;;;5028499;28;20658;-74
2023/10/17 11:03:26;;;;;;;2.53;0.80;;;22.10;96.90;;;;;;5027241;28;20823;-75
2023/10/17 11:06:02;;;;;;;2.23;0.90;;;22.00;94.80;;;;;;5029358;28;20596;-76
2023/10/17 11:08:49;;;;;;;1.50;0.80;;;22.00;94.00;;;;;;5010953;28;20632;-75
2023/10/17 11:11:16;;;;;;;4.20;0.83;;;22.10;93.20;;;;;;5028815;28;20711;-76
2023/10/17 11:13:47;;;;;;;2.00;0.80;;;22.10;83.30;;;;;;5029068;28;20636;-74
2023/10/17 11:16:19;;;;;;;1.70;0.80;;;22.00;91.10;;;;;;5009029;28;20589;-74
2023/10/17 11:18:45;;;;;;;1.57;0.77;;;22.00;89.30;;;;;;5022608;28;20612;-74
2023/10/17 11:21:12;;;;;;;3.90;0.83;;;22.10;88.60;;;;;;5028839;28;20942;-74
2023/10/17 11:23:46;;;;;;;1.40;0.60;;;22.10;90.50;;;;;;5045478;28;21066;-75
2023/10/17 11:26:14;;;;;;;1.40;0.60;;;22.20;91.00;;;;;;5029164;28;20635;-74
2023/10/17 11:28:46;;;;;;;2.47;0.90;;;22.30;90.20;;;;;;5028867;28;20670;-74
2023/10/17 11:31:21;;;;;;;1.70;0.60;;;22.30;85.40;;;;;;5028084;28;20588;-74
2023/10/17 11:34:04;;;;;;;2.13;0.70;;;22.20;88.70;;;;;;5022887;28;20639;-74
2023/10/17 11:36:36;;;;;;;1.70;0.80;;;22.20;83.20;;;;;;5030209;28;21028;-74
2023/10/17 11:39:05;;;;;;;2.63;0.70;;;22.00;80.90;;;;;;5030147;28;20678;-75
2023/10/17 11:41:41;;;;;;;1.70;0.70;;;21.90;83.80;;;;;;5011681;28;20582;-75
2023/10/17 11:44:09;;;;;;;2.90;0.70;;;21.80;77.80;;;;;;5030028;28;20580;-74
2023/10/17 11:46:38;;;;;;;2.97;0.73;;;21.50;75.50;;;;;;5012381;28;21192;-75
2023/10/17 11:49:20;;;;;;;2.50;0.80;;;21.40;76.70;;;;;;5030252;28;20670;-74
2023/10/17 11:52:04;;;;;;;1.80;0.60;;;21.10;75.20;;;;;;5012016;28;20642;-74
2023/10/17 11:54:31;;;;;;;3.20;1.20;;;21.00;74.80;;;;;;5028242;28;20595;-75
2023/10/17 11:57:16;;;;;;;2.23;0.70;;;20.80;73.80;;;;;;5030200;28;20630;-74
2023/10/17 11:59:55;;;;;;;1.67;0.60;;;20.60;70.50;;;;;;5022039;28;21156;-74
2023/10/17 12:02:21;;;;;;;1.80;0.70;;;20.60;77.50;;;;;;5029842;28;20592;-75
2023/10/17 12:04:46;;;;;;;2.00;0.80;;;20.60;78.60;;;;;;5030095;28;20615;-74
2023/10/17 12:07:12;;;;;;;2.60;1.00;;;20.40;77.70;;;;;;5033130;28;20619;-74
2023/10/17 12:09:38;;;;;;;1.87;0.80;;;20.20;76.70;;;;;;5033846;28;20186;-75
2023/10/17 12:12:05;;;;;;;4.23;1.33;;;20.00;76.30;;;;;;5032727;28;20289;-74
2023/10/17 12:14:35;;;;;;;3.60;0.90;;;19.70;74.50;;;;;;5032344;28;20216;-76
2023/10/17 12:17:00;;;;;;;2.37;0.90;;;19.40;74.30;;;;;;5032624;28;20627;-76
2023/10/17 12:19:27;;;;;;;3.10;1.30;;;19.10;72.50;;;;;;5032157;28;20569;-76
2023/10/17 12:21:54;;;;;;;3.30;0.90;;;18.60;70.00;;;;;;5032084;28;20190;-76
2023/10/17 12:24:24;;;;;;;2.53;0.80;;;18.30;73.00;;;;;;5032104;28;21157;-76
2023/10/17 12:26:50;;;;;;;2.60;0.70;;;18.10;74.10;;;;;;5033277;28;20603;-76
2023/10/17 12:29:17;;;;;;;2.73;0.90;;;17.90;73.80;;;;;;5032296;28;20931;-75
2023/10/17 12:31:43;;;;;;;2.87;0.90;;;17.60;74.20;;;;;;5014929;28;20573;-76
2023/10/17 12:34:09;;;;;;;3.10;0.80;;;17.40;72.80;;;;;;5032998;28;20584;-76
2023/10/17 12:36:36;;;;;;;1.60;0.83;;;17.20;72.70;;;;;;5032653;28;20569;-75
2023/10/17 12:39:03;;;;;;;1.97;0.80;;;17.00;74.20;;;;;;5031413;28;20588;-76
2023/10/17 12:41:33;;;;;;;2.33;0.90;;;16.90;74.30;;;;;;5032205;28;20588;-76
2023/10/17 12:43:59;;;;;;;2.10;0.70;;;16.80;75.50;;;;;;5031865;28;20587;-76
2023/10/17 12:46:25;;;;;;;2.23;0.87;;;16.70;75.90;;;;;;5031399;28;20579;-76
2023/10/17 12:48:51;;;;;;;1.73;0.80;;;16.60;74.20;;;;;;5033050;28;21193;-75
2023/10/17 12:51:17;;;;;;;1.70;0.93;;;16.50;74.80;;;;;;5033008;28;20170;-75
2023/10/17 12:53:44;;;;;;;1.87;0.90;;;16.40;74.70;;;;;;5032723;28;20733;-75
2023/10/17 12:56:10;;;;;;;2.00;0.77;;;16.40;75.30;;;;;;5033084;28;20635;-76
2023/10/17 12:58:36;;;;;;;1.90;0.67;;;16.20;72.80;;;;;;5031745;28;20616;-76
2023/10/17 13:01:06;;;;;;;1.87;0.80;;;16.00;72.70;;;;;;5032979;28;20627;-76
2023/10/17 13:03:33;;;;;;;2.63;1.10;;;16.00;73.90;;;;;;5033025;28;20190;-76
2023/10/17 13:06:00;;;;;;;1.90;1.00;;;16.00;73.30;;;;;;5032065;28;20608;-76
2023/10/17 13:08:26;;;;;;;2.67;0.90;;;16.00;75.00;;;;;;5031354;28;20611;-77
2023/10/17 13:10:57;;;;;;;2.33;0.70;;;15.90;72.90;;;;;;5031407;28;20625;-76
2023/10/17 13:13:23;;;;;;;1.90;0.90;;;15.90;74.40;;;;;;5032495;28;20986;-76
2023/10/17 13:15:49;;;;;;;3.80;1.00;;;15.80;73.40;;;;;;5032612;28;20573;-76
2023/10/17 13:18:16;;;;;;;2.00;0.80;;;15.80;74.40;;;;;;5030143;28;21019;-76
2023/10/17 13:20:48;;;;;;;2.33;0.80;;;15.80;74.80;;;;;;5031178;28;20197;-76
2023/10/17 13:23:16;;;;;;;2.80;1.17;;;15.80;76.00;;;;;;5030598;28;20593;-76
2023/10/17 13:25:43;;;;;;;3.57;1.10;;;15.80;75.40;;;;;;5031936;28;20675;-76
2023/10/17 13:28:09;;;;;;;2.93;1.10;;;15.70;74.10;;;;;;5032302;28;20620;-76
2023/10/17 13:30:35;;;;;;;1.60;0.70;;;15.80;74.30;;;;;;5031125;28;20588;-76
2023/10/17 13:33:02;;;;;;;4.53;0.97;;;15.70;74.10;;;;;;5030915;28;20747;-76
2023/10/17 13:35:28;;;;;;;2.50;1.23;;;15.80;74.70;;;;;;5014502;28;20650;-76
2023/10/17 13:37:55;;;;;;;1.40;0.80;;;15.70;74.60;;;;;;5030013;28;20623;-76
2023/10/17 13:40:24;;;;;;;1.60;0.70;;;15.70;75.30;;;;;;5032416;28;20679;-76
2023/10/17 13:42:50;;;;;;;1.50;0.73;;;15.70;74.50;;;;;;5036367;28;20608;-75
2023/10/17 13:45:17;;;;;;;1.70;0.80;;;15.70;73.10;;;;;;5027664;28;20611;-76
2023/10/17 13:47:43;;;;;;;1.60;0.60;;;15.70;74.60;;;;;;5031842;28;20731;-76
2023/10/17 13:50:15;;;;;;;2.20;0.93;;;15.70;74.90;;;;;;5034394;28;20647;-76
2023/10/17 13:52:42;;;;;;;2.50;0.80;;;15.70;75.00;;;;;;5030036;28;20209;-76
2023/10/17 13:55:14;;;;;;;2.80;0.70;;;15.70;73.70;;;;;;5014372;28;20627;-76
2023/10/17 13:57:42;;;;;;;2.13;0.80;;;15.70;74.40;;;;;;5028672;28;20624;-76
2023/10/17 14:00:21;;;;;;;3.50;0.80;;;15.80;74.90;;;;;;5031870;28;20568;-76
2023/10/17 14:02:49;;;;;;;4.17;0.80;;;15.70;74.50;;;;;;5031819;28;20643;-76
2023/10/17 14:05:17;;;;;;;2.07;0.80;;;15.80;74.70;;;;;;5030347;28;20606;-76
2023/10/17 14:07:43;;;;;;;4.47;1.00;;;15.70;74.70;;;;;;5030922;28;20620;-76
2023/10/17 14:10:11;;;;;;;3.07;1.00;;;15.70;73.00;;;;;;5031078;28;21186;-76
2023/10/17 14:12:41;;;;;;;1.60;0.70;;;15.70;74.60;;;;;;5028807;28;21294;-75
2023/10/17 14:15:08;;;;;;;1.83;0.70;;;15.80;75.90;;;;;;5030915;28;20584;-75
2023/10/17 14:17:34;;;;;;;2.03;0.70;;;15.80;75.90;;;;;;5019762;28;20694;-75
2023/10/17 14:20:14;;;;;;;2.50;0.70;;;15.80;76.00;;;;;;5031506;28;20594;-75
2023/10/17 14:28:11;;;;;;;1.40;0.70;;;15.70;74.10;;;;;;5024112;28;20674;-76
2023/10/17 14:30:40;;;;;;;2.83;0.80;;;15.70;75.50;;;;;;5029896;28;20592;-76
2023/10/17 14:33:10;;;;;;;1.80;0.70;;;15.60;75.00;;;;;;5030411;28;20679;-74
2023/10/17 14:35:36;;;;;;;2.50;0.70;;;15.70;75.70;;;;;;5013255;28;20595;-75
2023/10/17 14:38:05;;;;;;;2.23;0.67;;;15.60;75.70;;;;;;5031053;28;21005;-74
2023/10/17 14:40:31;;;;;;;2.00;0.90;;;15.70;75.10;;;;;;5020397;28;20630;-78
2023/10/17 14:42:58;;;;;;;2.13;0.80;;;15.60;74.50;;;;;;5029614;28;20643;-77
2023/10/17 14:45:25;;;;;;;1.60;0.70;;;15.70;76.10;;;;;;5029706;28;20644;-78
2023/10/17 14:47:59;;;;;;;1.60;0.80;;;15.70;75.30;;;;;;5030649;28;20674;-77
2023/10/17 14:50:26;;;;;;;2.60;0.80;;;15.70;74.40;;;;;;5029719;28;20717;-78
2023/10/17 14:52:53;;;;;;;2.80;0.80;;;15.70;75.60;;;;;;5029165;28;20709;-77
2023/10/17 14:55:23;;;;;;;1.50;0.80;;;15.70;74.90;;;;;;5030750;28;20577;-77
2023/10/17 14:57:49;;;;;;;2.10;0.80;;;15.70;74.20;;;;;;5030786;28;20636;-77
2023/10/17 15:00:16;;;;;;;2.33;0.80;;;15.70;75.70;;;;;;5031587;28;20620;-77
2023/10/17 15:02:45;;;;;;;1.70;0.73;;;15.70;74.20;;;;;;5028377;28;20642;-77
2023/10/17 15:05:13;;;;;;;3.60;0.90;;;15.70;75.30;;;;;;5029710;28;20588;-78
2023/10/17 15:07:40;;;;;;;1.83;0.60;;;15.70;74.80;;;;;;5013135;28;20639;-78
2023/10/17 15:10:13;;;;;;;2.50;0.70;;;15.70;75.10;;;;;;5029256;28;20633;-78
2023/10/17 15:12:43;;;;;;;2.47;0.80;;;15.70;74.60;;;;;;5013030;28;20640;-77
2023/10/17 15:15:16;;;;;;;4.37;0.90;;;15.70;74.50;;;;;;5029549;28;20679;-77